Time;durP1;ratioP1;P1;durP2;ratioP2;P2;SDS_P1;SDS_P2;PMS_P1;PMS_P2;Temp;Humidity;BMP_temperature;BMP_pressure;BME280_temperature;BME280_humidity;BME280_pressure;Samples;Min_cycle;Max_cycle;Signal;HPM_P1;HPM_P2
2023/03/02 00:01:52;;;;;;;7.60;6.90;;;22.90;50.10;;;;;;4975036;28;20560;-81
2023/03/02 00:04:22;;;;;;;7.13;6.60;;;22.90;50.10;;;;;;4971000;28;21018;-81
2023/03/02 00:06:54;;;;;;;7.37;6.77;;;22.80;50.10;;;;;;4972378;28;20537;-82
2023/03/02 00:09:24;;;;;;;8.47;7.77;;;22.80;50.10;;;;;;4975049;28;20459;-81
2023/03/02 00:11:52;;;;;;;7.80;7.10;;;22.80;50.00;;;;;;4973021;28;20471;-81
2023/03/02 00:14:21;;;;;;;7.70;7.00;;;22.80;50.00;;;;;;4971990;28;20532;-81
2023/03/02 00:16:49;;;;;;;6.87;6.27;;;22.80;50.00;;;;;;4974168;28;20487;-80
2023/03/02 00:19:17;;;;;;;6.60;6.10;;;22.80;50.00;;;;;;4975203;28;20459;-81
2023/03/02 00:21:45;;;;;;;7.93;7.13;;;22.80;49.90;;;;;;4970686;28;20529;-80
2023/03/02 00:24:14;;;;;;;6.90;6.30;;;22.80;49.90;;;;;;4970271;28;20439;-80
2023/03/02 00:26:44;;;;;;;7.60;6.80;;;22.70;49.90;;;;;;4971784;28;20510;-81
2023/03/02 00:29:13;;;;;;;7.00;6.33;;;22.70;50.00;;;;;;4969926;28;20513;-81
2023/03/02 00:31:41;;;;;;;6.77;6.27;;;22.70;49.90;;;;;;4970727;28;20542;-81
2023/03/02 00:34:09;;;;;;;6.60;6.00;;;22.70;49.90;;;;;;4973374;28;20450;-80
2023/03/02 00:36:37;;;;;;;7.60;7.00;;;22.60;49.90;;;;;;4956080;28;20460;-80
2023/03/02 00:39:05;;;;;;;7.53;6.83;;;22.60;49.80;;;;;;4953491;28;20841;-80
2023/03/02 00:41:34;;;;;;;6.57;6.07;;;22.60;49.80;;;;;;4973454;28;20843;-80
2023/03/02 00:44:03;;;;;;;7.30;6.60;;;22.60;49.80;;;;;;4971989;28;20466;-80
2023/03/02 00:46:31;;;;;;;7.43;6.63;;;22.60;49.70;;;;;;4953749;28;20584;-80
2023/03/02 00:49:00;;;;;;;6.67;6.07;;;22.60;49.70;;;;;;4970242;28;20466;-80
2023/03/02 00:51:28;;;;;;;7.43;6.73;;;22.60;49.80;;;;;;4979249;28;20957;-81
2023/03/02 00:53:56;;;;;;;7.47;6.70;;;22.60;49.70;;;;;;4974865;28;20496;-80
2023/03/02 00:56:24;;;;;;;6.83;6.23;;;22.60;49.70;;;;;;4980074;28;20945;-80
2023/03/02 00:58:53;;;;;;;8.13;7.33;;;22.60;49.80;;;;;;4955820;28;20482;-80
2023/03/02 01:01:23;;;;;;;6.80;6.20;;;22.50;50.10;;;;;;4956423;28;20512;-80
2023/03/02 01:03:53;;;;;;;7.93;7.20;;;22.50;50.00;;;;;;4965340;28;20480;-80
2023/03/02 01:06:21;;;;;;;6.60;6.10;;;22.50;50.00;;;;;;4970616;28;20480;-80
2023/03/02 01:08:49;;;;;;;7.63;7.03;;;22.50;50.00;;;;;;4969512;28;21161;-80
2023/03/02 01:11:20;;;;;;;7.60;6.90;;;22.50;50.00;;;;;;4976157;28;20564;-81
2023/03/02 01:13:49;;;;;;;7.93;6.77;;;22.50;50.10;;;;;;4975584;28;20443;-81
2023/03/02 01:16:17;;;;;;;7.07;6.50;;;22.50;50.20;;;;;;4974225;28;20493;-81
2023/03/02 01:18:46;;;;;;;7.40;6.70;;;22.50;50.30;;;;;;4956630;28;20983;-81
2023/03/02 01:21:16;;;;;;;6.87;6.17;;;22.50;50.30;;;;;;4981440;28;20959;-80
2023/03/02 01:23:44;;;;;;;6.50;6.00;;;22.50;50.30;;;;;;4974582;28;20458;-81
2023/03/02 01:26:12;;;;;;;7.43;6.73;;;22.60;50.30;;;;;;4973831;28;20518;-80
2023/03/02 01:28:40;;;;;;;7.07;6.40;;;22.60;50.20;;;;;;4973669;28;20483;-80
2023/03/02 01:31:08;;;;;;;6.50;5.90;;;22.60;50.10;;;;;;4959220;28;20473;-80
2023/03/02 01:33:37;;;;;;;7.33;6.70;;;22.60;50.20;;;;;;4955425;28;21020;-80
2023/03/02 01:36:08;;;;;;;6.53;5.97;;;22.60;50.10;;;;;;4975452;28;20473;-80
2023/03/02 01:38:36;;;;;;;6.47;5.97;;;22.60;50.00;;;;;;4973208;28;20499;-80
2023/03/02 01:41:04;;;;;;;6.10;5.70;;;22.60;50.00;;;;;;4974504;28;20516;-80
2023/03/02 01:43:33;;;;;;;7.73;7.10;;;22.60;49.90;;;;;;4964648;28;20961;-80
2023/03/02 01:46:03;;;;;;;6.10;5.50;;;22.60;49.90;;;;;;4975709;28;20532;-80
2023/03/02 01:48:48;;;;;;;6.70;6.07;;;22.60;49.90;;;;;;4970643;28;20559;-80
2023/03/02 01:51:26;;;;;;;6.20;5.60;;;22.50;49.80;;;;;;4959310;28;20996;-81
2023/03/02 01:54:01;;;;;;;6.93;6.33;;;22.50;49.80;;;;;;4962592;28;20986;-80
2023/03/02 01:56:33;;;;;;;7.10;6.50;;;22.50;49.80;;;;;;4964647;28;20452;-81
2023/03/02 01:59:05;;;;;;;6.87;6.27;;;22.50;49.80;;;;;;4992913;28;20577;-80
2023/03/02 02:01:36;;;;;;;6.83;6.23;;;22.50;49.80;;;;;;4994306;28;20463;-81
2023/03/02 02:04:06;;;;;;;8.03;7.33;;;22.50;49.80;;;;;;4976711;28;20467;-80
2023/03/02 02:06:39;;;;;;;6.97;6.20;;;22.50;49.70;;;;;;4975523;28;21049;-80
2023/03/02 02:09:10;;;;;;;6.67;6.10;;;22.50;49.80;;;;;;4989799;28;20466;-81
2023/03/02 02:11:38;;;;;;;6.80;6.10;;;22.40;49.70;;;;;;4970797;28;20520;-80
2023/03/02 02:14:07;;;;;;;6.97;6.37;;;22.50;49.70;;;;;;4973977;28;20503;-80
2023/03/02 02:16:36;;;;;;;6.43;5.80;;;22.40;49.70;;;;;;4967247;28;20551;-80
2023/03/02 02:19:11;;;;;;;6.80;6.20;;;22.40;49.70;;;;;;4976448;28;20457;-80
2023/03/02 02:21:46;;;;;;;5.87;5.27;;;22.40;49.60;;;;;;4977735;28;20497;-80
2023/03/02 02:24:20;;;;;;;7.13;6.53;;;22.40;49.60;;;;;;4987343;28;20555;-80
2023/03/02 02:26:52;;;;;;;6.00;5.53;;;22.40;49.50;;;;;;4989557;28;20505;-80
2023/03/02 02:29:24;;;;;;;6.53;6.00;;;22.40;49.50;;;;;;4974387;28;20446;-81
2023/03/02 02:31:55;;;;;;;7.00;6.40;;;22.40;49.50;;;;;;4973362;28;20473;-80
2023/03/02 02:34:27;;;;;;;6.70;6.10;;;22.40;49.50;;;;;;4978418;28;20434;-80
2023/03/02 02:36:59;;;;;;;6.37;5.77;;;22.40;49.40;;;;;;4968388;28;20454;-80
2023/03/02 02:39:32;;;;;;;5.43;5.03;;;22.40;49.40;;;;;;4963875;28;20497;-80
2023/03/02 02:42:07;;;;;;;5.93;5.43;;;22.40;49.40;;;;;;4987607;28;20454;-80
2023/03/02 02:44:35;;;;;;;7.27;6.63;;;22.40;49.50;;;;;;4988956;28;20496;-80
2023/03/02 02:47:03;;;;;;;6.20;5.70;;;22.40;49.50;;;;;;4975608;28;20902;-80
2023/03/02 02:49:36;;;;;;;6.00;5.57;;;22.50;49.50;;;;;;4990408;28;20484;-80
2023/03/02 02:52:06;;;;;;;6.10;5.60;;;22.50;49.50;;;;;;4977758;28;20460;-80
2023/03/02 02:54:36;;;;;;;7.10;6.50;;;22.50;49.40;;;;;;4974781;28;20853;-80
2023/03/02 02:57:07;;;;;;;6.70;6.17;;;22.50;49.40;;;;;;4987217;28;20454;-80
2023/03/02 02:59:41;;;;;;;5.97;5.50;;;22.50;49.30;;;;;;4984576;28;20470;-80
2023/03/02 03:02:17;;;;;;;6.90;6.30;;;22.50;49.30;;;;;;4990072;28;20453;-80
2023/03/02 03:04:45;;;;;;;6.77;6.17;;;22.50;49.20;;;;;;4993392;28;20545;-80
2023/03/02 03:07:18;;;;;;;6.80;6.30;;;22.50;49.20;;;;;;4968588;28;20478;-80
2023/03/02 03:09:52;;;;;;;6.00;5.40;;;22.50;49.10;;;;;;4966276;28;20508;-80
2023/03/02 03:12:24;;;;;;;6.50;6.00;;;22.50;49.10;;;;;;4991232;28;20532;-81
2023/03/02 03:14:53;;;;;;;5.93;5.47;;;22.50;49.10;;;;;;4963305;28;20491;-80
2023/03/02 03:17:21;;;;;;;6.70;6.20;;;22.50;49.10;;;;;;4964760;28;20462;-80
2023/03/02 03:20:05;;;;;;;7.20;6.50;;;22.40;49.00;;;;;;4958233;28;20473;-81
2023/03/02 03:22:37;;;;;;;6.27;5.77;;;22.40;49.00;;;;;;4969309;28;20492;-80
2023/03/02 03:25:07;;;;;;;6.33;5.80;;;22.40;49.00;;;;;;4955157;28;20465;-80
2023/03/02 03:27:37;;;;;;;6.80;6.20;;;22.40;48.90;;;;;;4974016;28;20587;-80
2023/03/02 03:30:06;;;;;;;7.17;6.57;;;22.40;48.90;;;;;;4970078;28;20473;-80
2023/03/02 03:32:35;;;;;;;6.70;6.10;;;22.40;48.90;;;;;;4972724;28;20450;-80
2023/03/02 03:35:07;;;;;;;6.70;6.10;;;22.40;48.90;;;;;;4973490;28;20569;-80
2023/03/02 03:37:36;;;;;;;6.83;6.23;;;22.40;48.90;;;;;;4972249;28;20953;-80
2023/03/02 03:40:08;;;;;;;7.20;6.50;;;22.40;48.90;;;;;;4989606;28;20982;-80
2023/03/02 03:42:39;;;;;;;7.40;6.70;;;22.40;48.90;;;;;;4967162;28;20466;-80
2023/03/02 03:45:08;;;;;;;7.00;6.30;;;22.40;48.80;;;;;;4970645;28;20462;-80
2023/03/02 03:47:38;;;;;;;6.40;5.87;;;22.40;48.80;;;;;;4969326;28;20482;-80
2023/03/02 03:50:09;;;;;;;7.00;6.30;;;22.30;48.80;;;;;;4973415;28;21014;-80
2023/03/02 03:52:37;;;;;;;6.60;6.00;;;22.40;48.80;;;;;;4963112;28;20462;-81
2023/03/02 03:55:15;;;;;;;6.77;6.20;;;22.30;48.70;;;;;;4968598;28;20461;-81
2023/03/02 03:57:48;;;;;;;6.47;5.87;;;22.30;48.80;;;;;;4973688;28;20991;-81
2023/03/02 04:00:17;;;;;;;7.00;6.40;;;22.40;48.70;;;;;;4970229;28;20474;-81
2023/03/02 04:03:01;;;;;;;7.20;6.60;;;22.40;48.70;;;;;;4966407;28;20473;-81
2023/03/02 04:05:31;;;;;;;6.77;6.17;;;22.40;48.70;;;;;;4971091;28;20530;-81
2023/03/02 04:08:01;;;;;;;6.37;5.87;;;22.40;48.70;;;;;;4979245;28;20477;-81
2023/03/02 04:10:30;;;;;;;6.77;6.27;;;22.40;48.70;;;;;;4989483;28;20465;-81
2023/03/02 04:13:00;;;;;;;6.50;6.00;;;22.40;48.70;;;;;;4974464;28;20971;-81
2023/03/02 04:15:29;;;;;;;6.90;6.40;;;22.40;48.70;;;;;;4968361;28;20469;-81
2023/03/02 04:17:59;;;;;;;6.70;6.20;;;22.40;48.80;;;;;;4972604;28;20469;-81
2023/03/02 04:20:28;;;;;;;6.80;6.30;;;22.40;48.70;;;;;;4990254;28;20522;-81
2023/03/02 04:22:58;;;;;;;6.57;6.07;;;22.40;48.70;;;;;;4991370;28;20453;-81
2023/03/02 04:25:28;;;;;;;7.50;6.73;;;22.50;48.60;;;;;;4974157;28;20503;-81
2023/03/02 04:28:03;;;;;;;7.30;6.60;;;22.50;48.60;;;;;;4979557;28;20504;-81
2023/03/02 04:30:36;;;;;;;5.67;5.17;;;22.50;48.60;;;;;;4961996;28;20465;-81
2023/03/02 04:33:05;;;;;;;7.70;7.00;;;22.50;48.60;;;;;;4974501;28;20476;-81
2023/03/02 04:35:34;;;;;;;6.27;5.77;;;22.40;48.50;;;;;;4964895;28;20463;-81
2023/03/02 04:38:03;;;;;;;6.10;5.60;;;22.40;48.50;;;;;;4957921;28;20542;-81
2023/03/02 04:40:32;;;;;;;6.23;5.63;;;22.40;48.50;;;;;;4977464;28;20473;-81
2023/03/02 04:43:00;;;;;;;6.13;5.63;;;22.40;48.50;;;;;;4990558;28;20525;-81
2023/03/02 04:45:29;;;;;;;6.27;5.77;;;22.40;48.50;;;;;;4981546;28;20476;-81
2023/03/02 04:47:57;;;;;;;6.77;6.17;;;22.40;48.40;;;;;;4986445;28;21010;-81
2023/03/02 04:50:26;;;;;;;6.67;6.07;;;22.40;48.50;;;;;;4987302;28;20979;-81
2023/03/02 04:52:54;;;;;;;6.60;6.10;;;22.40;48.40;;;;;;4989710;28;20479;-81
2023/03/02 04:55:25;;;;;;;5.73;5.33;;;22.40;48.40;;;;;;4960176;28;20905;-81
2023/03/02 04:57:53;;;;;;;6.27;5.73;;;22.40;48.50;;;;;;4981492;28;20536;-81
2023/03/02 05:00:22;;;;;;;6.77;6.17;;;22.30;48.60;;;;;;4989530;28;20503;-80
2023/03/02 05:02:52;;;;;;;6.77;6.13;;;22.30;48.80;;;;;;4988164;28;20460;-81
2023/03/02 05:05:22;;;;;;;7.40;6.80;;;22.30;49.00;;;;;;4993069;28;20491;-81
2023/03/02 05:07:51;;;;;;;8.33;6.07;;;22.30;49.00;;;;;;4989188;28;20473;-81
2023/03/02 05:10:20;;;;;;;6.37;5.73;;;22.30;49.10;;;;;;4987951;28;20537;-81
2023/03/02 05:12:56;;;;;;;5.83;5.33;;;22.30;49.20;;;;;;4993779;28;20528;-81
2023/03/02 05:15:28;;;;;;;6.03;5.53;;;22.30;49.40;;;;;;4991999;28;20456;-80
2023/03/02 05:17:58;;;;;;;6.77;6.07;;;22.30;49.50;;;;;;4990927;28;21027;-81
2023/03/02 05:20:29;;;;;;;5.90;5.40;;;22.30;49.60;;;;;;4987433;28;21132;-81
2023/03/02 05:23:00;;;;;;;6.37;5.87;;;22.30;49.60;;;;;;4990443;28;21034;-80
2023/03/02 05:25:30;;;;;;;6.73;5.80;;;22.30;49.70;;;;;;4991681;28;20915;-82
2023/03/02 05:27:58;;;;;;;7.23;6.43;;;22.30;49.70;;;;;;4991734;28;20486;-82
2023/03/02 05:30:27;;;;;;;6.60;6.10;;;22.30;49.70;;;;;;4983125;28;20468;-81
2023/03/02 05:32:57;;;;;;;5.73;5.23;;;22.30;49.70;;;;;;4986791;28;20476;-82
2023/03/02 05:35:25;;;;;;;7.20;6.00;;;22.30;49.70;;;;;;4991994;28;20453;-81
2023/03/02 05:37:54;;;;;;;7.10;4.70;;;22.30;49.70;;;;;;4988386;28;20453;-81
2023/03/02 05:40:22;;;;;;;6.53;5.90;;;22.30;49.70;;;;;;4984050;28;20471;-82
2023/03/02 05:42:50;;;;;;;7.37;6.67;;;22.30;49.60;;;;;;4987734;28;20512;-82
2023/03/02 05:45:23;;;;;;;6.27;5.07;;;22.40;49.60;;;;;;4985112;28;20500;-82
2023/03/02 05:47:51;;;;;;;6.23;5.63;;;22.40;49.70;;;;;;4989320;28;20580;-82
2023/03/02 05:50:21;;;;;;;6.33;5.73;;;22.40;49.80;;;;;;4981763;28;20470;-82
2023/03/02 05:52:49;;;;;;;6.60;5.97;;;22.40;49.90;;;;;;4989074;28;20551;-82
2023/03/02 05:55:18;;;;;;;7.40;5.30;;;22.40;50.00;;;;;;4989448;28;20474;-82
2023/03/02 05:57:48;;;;;;;6.43;5.93;;;22.40;50.10;;;;;;4973899;28;21177;-82
2023/03/02 06:00:17;;;;;;;6.13;5.53;;;22.40;50.10;;;;;;4979363;28;21023;-83
2023/03/02 06:02:45;;;;;;;6.10;5.50;;;22.40;50.20;;;;;;4986659;28;20560;-81
2023/03/02 06:05:15;;;;;;;6.77;6.17;;;22.40;50.30;;;;;;4985483;28;20474;-82
2023/03/02 06:07:46;;;;;;;5.97;5.30;;;22.40;50.70;;;;;;4983958;28;20513;-81
2023/03/02 06:10:15;;;;;;;7.73;5.70;;;22.30;51.20;;;;;;4976983;28;20596;-83
2023/03/02 06:12:43;;;;;;;6.57;5.73;;;22.30;51.90;;;;;;4982505;28;21027;-81
2023/03/02 06:15:11;;;;;;;6.90;6.30;;;22.40;52.10;;;;;;4978026;28;21040;-81
2023/03/02 06:17:39;;;;;;;9.97;5.90;;;22.40;52.20;;;;;;4981432;28;20454;-81
2023/03/02 06:20:09;;;;;;;6.27;5.47;;;22.40;52.30;;;;;;4970314;28;20560;-84
2023/03/02 06:22:40;;;;;;;8.07;6.40;;;22.30;52.40;;;;;;4976202;28;20460;-83
2023/03/02 06:25:12;;;;;;;7.13;5.77;;;22.40;52.60;;;;;;4977763;28;20465;-82
2023/03/02 06:27:41;;;;;;;9.67;6.00;;;22.30;52.60;;;;;;4975985;28;20507;-82
2023/03/02 06:30:13;;;;;;;8.90;6.80;;;22.30;53.00;;;;;;4974877;28;20562;-82
2023/03/02 06:32:42;;;;;;;6.33;5.40;;;22.30;52.80;;;;;;4978541;28;20462;-82
2023/03/02 06:35:10;;;;;;;9.87;6.20;;;22.30;52.80;;;;;;4983279;28;20461;-82
2023/03/02 06:37:39;;;;;;;8.80;6.00;;;22.30;52.80;;;;;;4976467;28;20473;-82
2023/03/02 06:40:13;;;;;;;7.43;6.23;;;22.30;52.80;;;;;;4975231;28;21149;-81
2023/03/02 06:42:42;;;;;;;6.27;5.67;;;22.30;52.70;;;;;;4979482;28;21231;-81
2023/03/02 06:45:11;;;;;;;11.17;6.10;;;22.20;52.70;;;;;;4973780;28;20569;-82
2023/03/02 06:47:39;;;;;;;11.73;6.27;;;22.20;54.00;;;;;;4976915;28;20466;-81
2023/03/02 06:50:09;;;;;;;8.17;6.93;;;22.20;53.70;;;;;;4979052;28;20489;-82
2023/03/02 06:52:37;;;;;;;8.17;5.70;;;22.20;53.80;;;;;;4978038;28;20466;-82
2023/03/02 06:55:06;;;;;;;11.03;6.90;;;22.30;53.60;;;;;;4978643;28;20469;-82
2023/03/02 06:57:36;;;;;;;8.33;6.00;;;22.30;53.80;;;;;;4977807;28;21341;-82
2023/03/02 07:00:08;;;;;;;7.30;6.40;;;22.30;53.90;;;;;;4974391;28;20815;-81
2023/03/02 07:02:37;;;;;;;8.40;6.40;;;22.30;54.00;;;;;;4976831;28;20502;-82
2023/03/02 07:05:07;;;;;;;7.73;6.00;;;22.30;54.00;;;;;;4973547;28;20560;-81
2023/03/02 07:07:35;;;;;;;8.40;5.80;;;22.30;54.00;;;;;;4978576;28;20469;-81
2023/03/02 07:10:03;;;;;;;10.80;6.80;;;22.40;54.00;;;;;;4979523;28;20523;-81
2023/03/02 07:12:32;;;;;;;14.17;6.30;;;22.40;54.00;;;;;;4978308;28;20501;-81
2023/03/02 07:15:02;;;;;;;8.50;5.67;;;22.40;54.00;;;;;;4972573;28;20479;-81
2023/03/02 07:17:30;;;;;;;8.40;7.10;;;22.40;54.00;;;;;;4976505;28;20462;-81
2023/03/02 07:19:58;;;;;;;9.50;5.87;;;22.40;53.90;;;;;;4956480;28;20535;-81
2023/03/02 07:22:27;;;;;;;7.77;6.53;;;22.40;53.90;;;;;;4973891;28;20465;-81
2023/03/02 07:24:55;;;;;;;10.33;6.67;;;22.40;54.00;;;;;;4974319;28;20468;-80
2023/03/02 07:27:23;;;;;;;9.87;6.30;;;22.40;54.00;;;;;;4972679;28;20592;-79
2023/03/02 07:29:51;;;;;;;9.73;6.37;;;22.40;54.10;;;;;;4976908;28;20478;-79
2023/03/02 07:32:21;;;;;;;10.83;5.93;;;22.40;54.10;;;;;;4979463;28;20548;-78
2023/03/02 07:34:49;;;;;;;8.57;6.10;;;22.40;54.20;;;;;;4991207;28;20457;-78
2023/03/02 07:37:17;;;;;;;8.93;5.93;;;22.40;54.20;;;;;;4992267;28;20459;-78
2023/03/02 07:39:46;;;;;;;7.17;5.23;;;22.40;54.20;;;;;;4990968;28;20465;-78
2023/03/02 07:42:15;;;;;;;9.00;6.07;;;22.40;54.30;;;;;;4986106;28;20565;-78
2023/03/02 07:44:47;;;;;;;6.93;6.23;;;22.40;54.30;;;;;;4973143;28;20486;-77
2023/03/02 07:47:15;;;;;;;6.47;5.77;;;22.50;54.30;;;;;;4989049;28;20912;-77
2023/03/02 07:49:44;;;;;;;9.77;8.33;;;22.50;54.30;;;;;;4989981;28;20568;-76
2023/03/02 07:52:13;;;;;;;9.40;6.10;;;22.50;54.30;;;;;;4992033;28;20443;-77
2023/03/02 07:54:41;;;;;;;7.00;5.30;;;22.60;54.30;;;;;;4990777;28;20452;-77
2023/03/02 07:57:09;;;;;;;11.50;5.90;;;22.60;54.20;;;;;;4985775;28;20471;-77
2023/03/02 07:59:37;;;;;;;8.30;5.87;;;22.60;54.20;;;;;;4985505;28;20528;-79
2023/03/02 08:02:05;;;;;;;5.97;5.37;;;22.60;54.20;;;;;;4976817;28;20604;-77
2023/03/02 08:04:35;;;;;;;9.90;6.17;;;22.60;54.10;;;;;;4987863;28;20476;-80
2023/03/02 08:07:04;;;;;;;6.80;5.60;;;22.70;54.10;;;;;;4986873;28;20458;-81
2023/03/02 08:09:33;;;;;;;8.47;5.37;;;22.70;54.10;;;;;;4989376;28;21041;-80
2023/03/02 08:12:01;;;;;;;10.53;5.43;;;22.70;54.00;;;;;;4991638;28;20460;-80
2023/03/02 08:14:29;;;;;;;6.03;5.07;;;22.70;54.00;;;;;;4986957;28;21016;-80
2023/03/02 08:16:57;;;;;;;6.00;5.13;;;22.70;53.90;;;;;;4979449;28;20476;-79
2023/03/02 08:19:25;;;;;;;5.40;5.00;;;22.80;53.90;;;;;;4981556;28;20937;-78
2023/03/02 08:21:53;;;;;;;5.77;5.27;;;22.80;53.80;;;;;;4991433;28;20492;-78
2023/03/02 08:24:23;;;;;;;7.03;5.40;;;22.80;53.80;;;;;;4977280;28;20497;-79
2023/03/02 08:26:51;;;;;;;6.50;5.87;;;22.80;53.70;;;;;;4986424;28;20526;-79
2023/03/02 08:29:19;;;;;;;6.40;5.60;;;22.80;53.70;;;;;;4989322;28;20571;-79
2023/03/02 08:31:47;;;;;;;6.57;5.60;;;22.80;53.60;;;;;;4983343;28;20492;-78
2023/03/02 08:34:16;;;;;;;9.40;6.37;;;22.80;53.50;;;;;;4987249;28;20961;-79
2023/03/02 08:36:44;;;;;;;5.00;4.60;;;22.90;53.40;;;;;;4984828;28;20451;-78
2023/03/02 08:39:12;;;;;;;6.23;5.63;;;22.90;53.30;;;;;;4989024;28;20497;-79
2023/03/02 08:41:42;;;;;;;7.30;5.50;;;22.90;53.10;;;;;;4990174;28;20449;-79
2023/03/02 08:44:10;;;;;;;6.50;4.90;;;22.90;53.10;;;;;;4983165;28;20504;-79
2023/03/02 08:46:38;;;;;;;7.10;6.43;;;23.00;53.00;;;;;;4988495;28;20464;-78
2023/03/02 08:49:06;;;;;;;7.00;6.00;;;23.00;52.90;;;;;;4986230;28;20584;-78
2023/03/02 08:51:34;;;;;;;6.53;5.77;;;23.00;52.80;;;;;;4984186;28;20450;-78
2023/03/02 08:54:03;;;;;;;7.33;5.50;;;23.10;52.70;;;;;;4982717;28;20581;-78
2023/03/02 08:56:33;;;;;;;5.93;5.33;;;23.10;52.70;;;;;;4985580;28;20462;-78
2023/03/02 08:59:06;;;;;;;7.97;6.20;;;23.10;52.60;;;;;;4989687;28;20846;-78
2023/03/02 09:01:36;;;;;;;6.10;5.17;;;23.10;52.60;;;;;;4982743;28;20469;-78
2023/03/02 09:04:06;;;;;;;6.17;5.03;;;23.10;52.50;;;;;;4984161;28;21042;-78
2023/03/02 09:06:38;;;;;;;6.00;5.37;;;23.10;52.50;;;;;;4982181;28;20454;-79
2023/03/02 09:09:08;;;;;;;6.27;5.67;;;23.10;52.50;;;;;;4980411;28;20979;-78
2023/03/02 09:11:37;;;;;;;5.30;4.80;;;23.10;52.40;;;;;;4983562;28;20549;-82
2023/03/02 09:14:06;;;;;;;5.40;4.90;;;23.10;52.40;;;;;;4985676;28;20462;-80
2023/03/02 09:16:34;;;;;;;5.93;5.43;;;23.20;52.40;;;;;;4980669;28;20957;-80
2023/03/02 09:19:03;;;;;;;5.93;5.40;;;23.20;52.40;;;;;;4985647;28;20461;-80
2023/03/02 09:21:31;;;;;;;5.00;4.50;;;23.20;52.30;;;;;;4988264;28;20923;-79
2023/03/02 09:23:59;;;;;;;6.50;6.00;;;23.20;52.30;;;;;;4969971;28;20496;-79
2023/03/02 09:26:28;;;;;;;6.00;5.50;;;23.20;52.30;;;;;;4970950;28;20450;-78
2023/03/02 09:28:56;;;;;;;5.80;4.93;;;23.20;52.30;;;;;;4987963;28;20550;-78
2023/03/02 09:31:26;;;;;;;5.73;5.23;;;23.20;52.30;;;;;;4982576;28;20821;-82
2023/03/02 09:33:57;;;;;;;6.73;5.00;;;23.20;52.20;;;;;;4982743;28;20459;-82
2023/03/02 09:36:27;;;;;;;5.63;5.13;;;23.20;52.10;;;;;;4987705;28;20552;-79
2023/03/02 09:38:55;;;;;;;5.40;4.90;;;23.20;52.20;;;;;;4985818;28;20512;-81
2023/03/02 09:41:57;;;;;;;5.70;4.83;;;23.20;52.20;;;;;;4987936;28;20983;-81
2023/03/02 09:44:47;;;;;;;5.70;5.20;;;23.20;52.20;;;;;;4988854;28;20507;-80
2023/03/02 09:47:26;;;;;;;7.80;5.93;;;23.20;52.20;;;;;;4989350;28;20482;-78
2023/03/02 09:50:16;;;;;;;5.03;4.57;;;23.20;52.20;;;;;;4983636;28;20484;-78
2023/03/02 09:52:52;;;;;;;6.23;5.47;;;23.20;52.10;;;;;;4989940;28;20557;-77
2023/03/02 09:55:27;;;;;;;5.70;5.10;;;23.30;52.10;;;;;;4988027;28;20453;-78
2023/03/02 09:57:55;;;;;;;5.40;4.90;;;23.20;52.00;;;;;;4989851;28;20551;-78
2023/03/02 10:00:28;;;;;;;4.80;4.40;;;23.30;52.10;;;;;;4988095;28;20457;-79
2023/03/02 10:03:01;;;;;;;6.50;5.70;;;23.30;52.00;;;;;;4990297;28;20455;-79
2023/03/02 10:05:44;;;;;;;5.63;5.23;;;23.30;52.00;;;;;;4988953;28;20454;-80
2023/03/02 10:08:15;;;;;;;7.20;5.70;;;23.30;51.90;;;;;;4986455;28;20514;-87
2023/03/02 10:10:46;;;;;;;5.97;5.37;;;23.30;51.90;;;;;;4986126;28;20560;-87
2023/03/02 10:13:22;;;;;;;5.33;4.93;;;23.30;51.60;;;;;;4975479;28;21253;-84
2023/03/02 10:16:02;;;;;;;5.23;4.73;;;23.30;51.50;;;;;;4993502;28;20553;-86
2023/03/02 10:18:38;;;;;;;5.93;5.43;;;23.30;51.40;;;;;;4992971;28;20468;-85
2023/03/02 10:21:14;;;;;;;5.57;5.03;;;23.30;51.30;;;;;;4995063;28;20461;-87
2023/03/02 10:23:49;;;;;;;5.80;5.40;;;23.40;51.20;;;;;;4988516;28;20466;-81
2023/03/02 10:26:31;;;;;;;5.80;5.30;;;23.40;51.20;;;;;;4988350;28;20450;-80
2023/03/02 10:29:08;;;;;;;4.90;4.50;;;23.40;51.40;;;;;;4990485;28;20451;-79
2023/03/02 10:31:40;;;;;;;5.20;4.80;;;23.40;51.50;;;;;;4986931;28;20491;-81
2023/03/02 10:34:10;;;;;;;5.47;5.03;;;23.40;51.60;;;;;;4989638;28;20447;-77
2023/03/02 10:36:41;;;;;;;6.10;4.90;;;23.40;51.60;;;;;;4985537;28;20829;-80
2023/03/02 10:39:14;;;;;;;6.27;5.20;;;23.40;51.70;;;;;;4966842;28;21039;-84
2023/03/02 10:41:48;;;;;;;5.37;4.87;;;23.50;51.70;;;;;;4979975;28;20462;-79
2023/03/02 10:44:21;;;;;;;5.97;5.43;;;23.50;51.80;;;;;;4986601;28;20545;-79
2023/03/02 10:46:50;;;;;;;5.00;4.33;;;23.50;51.70;;;;;;4989591;28;20492;-79
2023/03/02 10:49:27;;;;;;;5.80;5.30;;;23.50;51.70;;;;;;4988626;28;20446;-80
2023/03/02 10:51:57;;;;;;;5.80;5.13;;;23.60;51.60;;;;;;4980353;28;20905;-79
2023/03/02 10:54:27;;;;;;;5.40;4.90;;;23.60;51.60;;;;;;4987601;28;20473;-79
2023/03/02 10:56:57;;;;;;;9.47;4.90;;;23.60;51.60;;;;;;4989946;28;20462;-78
2023/03/02 10:59:42;;;;;;;6.37;5.10;;;23.70;51.60;;;;;;4987111;28;20552;-79
2023/03/02 11:02:17;;;;;;;5.50;5.00;;;23.70;51.60;;;;;;4983489;28;20472;-79
2023/03/02 11:04:46;;;;;;;5.10;4.70;;;23.80;51.40;;;;;;4983715;28;20457;-78
2023/03/02 11:07:17;;;;;;;4.97;4.47;;;23.90;51.20;;;;;;4990043;28;20664;-80
2023/03/02 11:10:00;;;;;;;5.73;5.23;;;23.90;51.10;;;;;;4987939;28;20924;-80
2023/03/02 11:12:29;;;;;;;5.93;5.10;;;24.00;51.10;;;;;;4983804;28;20562;-81
2023/03/02 11:15:19;;;;;;;4.70;4.30;;;24.00;51.10;;;;;;4985315;28;20502;-82
2023/03/02 11:17:50;;;;;;;5.40;4.53;;;24.00;51.10;;;;;;4987796;28;20483;-78
2023/03/02 11:20:25;;;;;;;5.93;5.33;;;24.00;51.20;;;;;;4984272;28;20818;-78
2023/03/02 11:23:00;;;;;;;5.33;4.90;;;24.00;51.30;;;;;;4984176;28;20457;-80
2023/03/02 11:25:31;;;;;;;5.70;5.10;;;24.10;51.30;;;;;;4983679;28;20875;-79
2023/03/02 11:28:05;;;;;;;5.13;4.73;;;24.20;51.10;;;;;;4969335;28;20486;-78
2023/03/02 11:30:38;;;;;;;6.00;4.90;;;24.40;51.00;;;;;;4979789;28;20465;-78
2023/03/02 11:33:12;;;;;;;5.50;5.00;;;24.60;50.70;;;;;;4984347;28;20463;-78
2023/03/02 11:35:51;;;;;;;6.07;5.27;;;24.80;50.30;;;;;;4980484;28;20462;-77
2023/03/02 11:38:24;;;;;;;5.50;5.00;;;25.00;50.00;;;;;;4985658;28;20783;-77
2023/03/02 11:40:58;;;;;;;5.47;5.07;;;25.20;49.60;;;;;;4989148;28;20545;-78
2023/03/02 11:43:26;;;;;;;5.13;4.47;;;25.30;49.30;;;;;;4971226;28;20973;-79
2023/03/02 11:45:58;;;;;;;5.70;5.30;;;25.40;49.00;;;;;;4984953;28;20480;-79
2023/03/02 11:48:29;;;;;;;4.90;4.50;;;25.40;49.00;;;;;;4981690;28;20487;-78
2023/03/02 11:51:02;;;;;;;7.03;6.33;;;25.50;48.80;;;;;;4987889;28;21013;-77
2023/03/02 11:53:39;;;;;;;4.90;4.50;;;25.50;48.90;;;;;;4980147;28;20463;-80
2023/03/02 11:56:07;;;;;;;5.60;5.20;;;25.60;48.80;;;;;;4980210;28;20457;-78
2023/03/02 11:58:37;;;;;;;4.50;4.20;;;25.60;48.80;;;;;;4983318;28;20551;-79
2023/03/02 12:01:09;;;;;;;4.73;4.33;;;25.60;48.70;;;;;;4986613;28;20548;-84
2023/03/02 12:03:40;;;;;;;5.23;4.83;;;25.60;48.40;;;;;;4984889;28;20822;-84
2023/03/02 12:06:27;;;;;;;4.97;4.57;;;25.70;48.10;;;;;;4978649;28;20549;-84
2023/03/02 12:09:09;;;;;;;4.80;4.40;;;25.70;48.10;;;;;;4976771;28;20476;-83
2023/03/02 12:11:40;;;;;;;5.60;5.10;;;25.70;48.00;;;;;;4974098;28;20489;-83
2023/03/02 12:14:26;;;;;;;5.13;4.80;;;25.70;47.90;;;;;;4980392;28;20561;-84
2023/03/02 12:17:05;;;;;;;4.40;4.00;;;25.80;47.80;;;;;;4977597;28;20486;-83
2023/03/02 12:19:41;;;;;;;5.40;5.00;;;25.80;47.80;;;;;;4978616;28;20523;-82
2023/03/02 12:22:13;;;;;;;4.53;4.23;;;25.90;47.70;;;;;;4978157;28;20957;-83
2023/03/02 12:24:44;;;;;;;4.93;4.50;;;25.90;47.70;;;;;;4978172;28;20556;-82
2023/03/02 12:27:26;;;;;;;5.50;5.07;;;25.90;47.70;;;;;;4975553;28;20590;-83
2023/03/02 12:30:08;;;;;;;4.90;4.50;;;25.90;47.60;;;;;;4964745;28;20837;-82
2023/03/02 12:32:36;;;;;;;4.53;4.23;;;25.90;47.60;;;;;;4976208;28;20480;-82
2023/03/02 12:35:13;;;;;;;5.80;5.37;;;26.00;47.50;;;;;;4972577;28;20876;-81
2023/03/02 12:37:48;;;;;;;4.83;4.53;;;26.00;47.50;;;;;;4973358;28;20562;-81
2023/03/02 12:40:34;;;;;;;4.80;4.50;;;25.90;47.50;;;;;;4976739;28;20560;-84
2023/03/02 12:43:27;;;;;;;4.83;4.50;;;26.00;47.50;;;;;;4974658;28;20464;-80
2023/03/02 12:46:23;;;;;;;5.50;5.10;;;26.00;47.50;;;;;;4976411;28;20569;-84
2023/03/02 12:48:59;;;;;;;5.03;4.70;;;26.00;47.50;;;;;;4981561;28;20474;-85
2023/03/02 12:51:30;;;;;;;5.20;4.80;;;25.90;47.50;;;;;;4979821;28;21601;-81
2023/03/02 12:54:12;;;;;;;5.27;4.77;;;25.90;47.60;;;;;;4978456;28;20561;-81
2023/03/02 12:56:40;;;;;;;4.80;4.43;;;25.90;47.60;;;;;;4978188;28;20489;-81
2023/03/02 12:59:21;;;;;;;4.70;4.30;;;25.80;47.70;;;;;;4980374;28;20460;-81
2023/03/02 13:01:49;;;;;;;5.77;5.27;;;25.80;47.80;;;;;;4964028;28;20468;-81
2023/03/02 13:04:25;;;;;;;4.93;4.53;;;25.80;47.80;;;;;;4982534;28;20482;-81
2023/03/02 13:06:54;;;;;;;4.63;4.30;;;25.80;47.80;;;;;;4982767;28;20601;-80